Kezdőlap
METAR-TAF:

METAR-TAF

Repülőterek :

Berlevåg, Norvégia

földrajzi szélesség: 70-52N, földrajzi hosszúság: 029-02E, magasság: 1 m

Jelenlegi meteorológiai megfigyelések

A jelentés 5 órával és 42 perccel ezelõtt készült, 20:50 UTC
Déli szél 4 kt
Hőmérséklet 3°C
Páratartalom 93%
Légköri nyomás 1028 hPa
Látótávolság 10 km, vagy több
Kevés felhő 1200 lábon
Szakadozott felhőzet 1700 lábon
enyhe záporok

METAR: ENBV 242050Z 17004KT 9999 -SHRA FEW012 BKN017 03/02 Q1028

Idő: 04:32 (02:32 UTC)

Előrejelzés

A jelentés 9 órával és 32 perccel ezelõtt készült, 17:00 UTC
Az előrejelzés 24-én 18 óra UTC és 24-én 21 óra UTC között érvényes
Kelet-délkeleti szél 8 kt
Látótávolság 10 km, vagy több
Kevés felhő 2000 lábon
Szakadozott felhőzet 3000 lábon

TAF: ENBV 241700Z 2418/2421 12008KT 9999 FEW020 BKN030

Meteorológiai megfigyelések és előrejelzések több, mint 4000 repülőtéren (METAR és TAF jelentéseket).

A térképen piros és sárga pontok jelzik az elérhető meteorológiai állomásokat.

Mozgassa az egeret a pont fölött, hogy megjelenjen az állomás neve.

Azután kattintson az időjárási megfigyelések és előrejelzések megtekintéséhez.

A térkép megváltoztatása: kattintson a fekete keresztel jelölt zöld gombra ráközelítéshez, a vonallal jelölt zöld gombra távolításhoz, vagy a zöld nyilakra a szomszédos térképek eléréséhez.


METAR-TAF: